Palo, Michigan
Current Conditions -  °F | °C
As of 2:33 PM on Thursday 23 Oct 2014 (Local Time) from KY70 Reporting Station
Clear Clear  
Wind Chill: 55°   Ceiling: Unl
Heat Index: 55°   Visibility: 10mi
Dew Point: 37°   Wind: 6mph
Humidity: 49%   Direction: 240°WSW
Pressure: 30.16"   Gusts: NA
Location:  43.11°N, 84.99°W
Report Text: KY70 231833Z AUTO 24005KT 10SM CLR 13/03 A3016 RMK AO2 T01300026
Loading
Personal Weather Stations






























Interactive Weather Map
Tropical Storm Tracking
New forecast layout! Learn more

10-Day Weather Forecast

Advertisements
Track Severe Weather on mobile